Time;durP1;ratioP1;P1;durP2;ratioP2;P2;SDS_P1;SDS_P2;PMS_P1;PMS_P2;Temp;Humidity;BMP_temperature;BMP_pressure;BME280_temperature;BME280_humidity;BME280_pressure;Samples;Min_cycle;Max_cycle;Signal;HPM_P1;HPM_P2
2023/03/04 00:01:52;;;;;;;57.10;36.72;;;2.20;99.90;;;;;;5036065;28;20025;-70
2023/03/04 00:04:17;;;;;;;58.55;38.08;;;2.20;99.90;;;;;;5036131;28;20105;-70
2023/03/04 00:06:43;;;;;;;56.83;36.50;;;2.10;99.90;;;;;;5036144;28;20033;-70
2023/03/04 00:09:09;;;;;;;72.22;41.95;;;2.00;99.90;;;;;;5036154;28;20033;-70
2023/03/04 00:11:34;;;;;;;69.90;39.88;;;1.90;99.90;;;;;;5018418;28;20030;-69
2023/03/04 00:14:00;;;;;;;62.72;39.13;;;1.80;99.90;;;;;;5037729;28;20026;-70
2023/03/04 00:16:26;;;;;;;61.75;37.97;;;1.70;99.90;;;;;;5039474;28;20045;-69
2023/03/04 00:18:55;;;;;;;66.95;37.45;;;1.60;99.90;;;;;;5021992;28;20025;-69
2023/03/04 00:21:21;;;;;;;59.60;37.00;;;1.50;99.90;;;;;;5039917;28;20096;-70
2023/03/04 00:23:47;;;;;;;57.42;37.15;;;1.50;99.90;;;;;;5039494;28;20071;-69
2023/03/04 00:26:13;;;;;;;64.30;38.00;;;1.40;99.90;;;;;;5022112;28;20033;-69
2023/03/04 00:28:39;;;;;;;63.97;39.90;;;1.40;99.90;;;;;;5021775;28;20018;-69
2023/03/04 00:31:06;;;;;;;63.78;39.20;;;1.40;99.90;;;;;;5039617;28;20085;-69
2023/03/04 00:33:32;;;;;;;65.10;41.50;;;1.30;99.90;;;;;;5039459;28;20077;-69
2023/03/04 00:35:57;;;;;;;67.22;40.70;;;1.30;99.90;;;;;;5039525;28;20022;-69
2023/03/04 00:38:23;;;;;;;68.38;40.95;;;1.30;99.90;;;;;;5039360;28;20056;-69
2023/03/04 00:40:49;;;;;;;71.95;42.83;;;1.30;99.90;;;;;;5039404;28;20566;-69
2023/03/04 00:43:14;;;;;;;69.00;41.08;;;1.30;99.90;;;;;;5039291;28;20031;-70
2023/03/04 00:45:40;;;;;;;72.00;42.50;;;1.30;99.90;;;;;;5039310;28;20033;-69
2023/03/04 00:48:06;;;;;;;67.75;40.80;;;1.20;99.90;;;;;;5039215;28;20025;-70
2023/03/04 00:50:31;;;;;;;69.50;41.47;;;1.20;99.90;;;;;;5038929;28;20036;-69
2023/03/04 00:52:57;;;;;;;72.65;43.55;;;1.20;99.90;;;;;;5039255;28;20057;-69
2023/03/04 00:55:23;;;;;;;72.03;43.67;;;1.10;99.90;;;;;;5039087;28;20075;-69
2023/03/04 00:57:48;;;;;;;71.78;41.97;;;1.10;99.90;;;;;;5021338;28;20584;-69
2023/03/04 01:00:14;;;;;;;67.10;41.38;;;1.00;99.90;;;;;;5039183;28;20482;-69
2023/03/04 01:02:40;;;;;;;71.40;43.53;;;1.00;99.90;;;;;;5021123;28;20028;-69
2023/03/04 01:05:07;;;;;;;62.17;41.13;;;1.00;99.90;;;;;;5038772;28;20025;-69
2023/03/04 01:07:33;;;;;;;67.10;40.80;;;0.90;99.90;;;;;;5021243;28;20080;-70
2023/03/04 01:09:58;;;;;;;68.93;43.17;;;0.90;99.90;;;;;;5038819;28;20025;-69
2023/03/04 01:12:24;;;;;;;67.30;42.22;;;0.90;99.90;;;;;;5038793;28;20014;-69
2023/03/04 01:14:49;;;;;;;71.72;43.35;;;0.80;99.90;;;;;;5021107;28;20025;-69
2023/03/04 01:17:15;;;;;;;71.15;43.95;;;0.80;99.90;;;;;;5038942;28;20055;-69
2023/03/04 01:19:41;;;;;;;75.03;44.45;;;0.80;99.90;;;;;;5038746;28;20029;-69
2023/03/04 01:22:06;;;;;;;68.50;39.90;;;0.70;99.90;;;;;;5038681;28;20028;-69
2023/03/04 01:24:32;;;;;;;67.57;40.45;;;0.70;99.90;;;;;;5037976;28;20036;-69
2023/03/04 01:26:58;;;;;;;73.53;42.67;;;0.70;99.90;;;;;;5037925;28;20025;-69
2023/03/04 01:29:23;;;;;;;76.53;44.00;;;0.70;99.90;;;;;;5038520;28;20517;-70
2023/03/04 01:31:49;;;;;;;72.10;44.50;;;0.70;99.90;;;;;;5038530;28;20060;-69
2023/03/04 01:34:14;;;;;;;69.05;44.83;;;0.70;99.90;;;;;;5020622;28;20056;-69
2023/03/04 01:36:40;;;;;;;74.70;46.80;;;0.60;99.90;;;;;;5038557;28;20101;-69
2023/03/04 01:39:06;;;;;;;77.75;46.47;;;0.60;99.90;;;;;;5038451;28;20025;-69
2023/03/04 01:41:31;;;;;;;75.30;43.70;;;0.60;99.90;;;;;;5038353;28;20025;-69
2023/03/04 01:44:02;;;;;;;68.18;42.53;;;0.60;99.90;;;;;;5038268;28;20029;-69
2023/03/04 01:46:29;;;;;;;67.25;41.83;;;0.70;99.90;;;;;;5020167;28;20025;-69
2023/03/04 01:48:55;;;;;;;63.38;40.45;;;0.60;99.90;;;;;;5038120;28;20025;-69
2023/03/04 01:51:21;;;;;;;68.25;41.72;;;0.60;99.90;;;;;;5038079;28;20022;-69
2023/03/04 01:53:52;;;;;;;69.07;41.40;;;0.60;99.90;;;;;;5038372;28;20017;-69
2023/03/04 01:56:38;;;;;;;74.82;42.50;;;0.60;99.90;;;;;;5019957;28;20017;-69
2023/03/04 01:59:08;;;;;;;66.50;40.85;;;0.60;99.90;;;;;;5020180;28;20044;-69
2023/03/04 02:01:34;;;;;;;65.25;38.92;;;0.50;99.90;;;;;;5038092;28;20454;-70
2023/03/04 02:03:59;;;;;;;66.05;39.15;;;0.50;99.90;;;;;;5037744;28;20034;-70
2023/03/04 02:06:25;;;;;;;73.60;40.20;;;0.50;99.90;;;;;;5037801;28;20096;-69
2023/03/04 02:08:51;;;;;;;67.18;41.97;;;0.50;99.90;;;;;;5037873;28;20031;-69
2023/03/04 02:11:17;;;;;;;68.38;42.88;;;0.40;99.90;;;;;;5037767;28;20079;-69
2023/03/04 02:13:42;;;;;;;59.63;38.05;;;0.30;99.90;;;;;;5019771;28;20029;-69
2023/03/04 02:16:08;;;;;;;65.82;40.00;;;0.30;99.90;;;;;;5019676;28;20405;-70
2023/03/04 02:18:34;;;;;;;65.32;41.42;;;0.30;99.90;;;;;;5037514;28;20400;-69
2023/03/04 02:21:08;;;;;;;74.28;44.13;;;0.20;99.90;;;;;;5037464;28;20025;-69
2023/03/04 02:23:52;;;;;;;74.43;43.63;;;0.20;99.90;;;;;;5019805;28;20036;-69
2023/03/04 02:26:26;;;;;;;79.70;44.67;;;0.20;99.90;;;;;;5020150;28;20025;-70
2023/03/04 02:28:55;;;;;;;71.30;41.88;;;0.20;99.90;;;;;;5019290;28;20112;-69
2023/03/04 02:31:28;;;;;;;66.22;41.10;;;0.10;99.90;;;;;;5037311;28;20021;-70
2023/03/04 02:33:57;;;;;;;67.32;42.75;;;0.10;99.90;;;;;;5019618;28;20389;-70
2023/03/04 02:36:23;;;;;;;65.32;40.90;;;0.00;99.90;;;;;;5037142;28;20014;-69
2023/03/04 02:38:51;;;;;;;78.30;43.40;;;0.00;99.90;;;;;;5037389;28;20077;-69
2023/03/04 02:41:21;;;;;;;72.03;44.72;;;-0.10;99.90;;;;;;5019578;28;20021;-69
2023/03/04 02:43:50;;;;;;;74.47;45.00;;;0.00;99.90;;;;;;5037056;28;20017;-69
2023/03/04 02:46:16;;;;;;;78.47;46.92;;;0.00;99.90;;;;;;5019212;28;20300;-70
2023/03/04 02:48:41;;;;;;;64.03;40.85;;;0.10;99.90;;;;;;5036827;28;20033;-69
2023/03/04 02:51:07;;;;;;;73.25;41.53;;;0.20;99.90;;;;;;5037035;28;20029;-69
2023/03/04 02:53:33;;;;;;;64.22;40.83;;;0.20;99.90;;;;;;5030710;28;20033;-69
2023/03/04 02:55:58;;;;;;;73.95;40.80;;;0.20;99.90;;;;;;5036934;28;20371;-69
2023/03/04 02:58:24;;;;;;;64.07;39.72;;;0.20;99.90;;;;;;5036849;28;20022;-70
2023/03/04 03:00:50;;;;;;;67.22;40.72;;;0.20;99.90;;;;;;5036738;28;20032;-69
2023/03/04 03:03:15;;;;;;;64.68;39.97;;;0.20;99.90;;;;;;5036770;28;20013;-69
2023/03/04 03:05:41;;;;;;;69.28;41.33;;;0.20;99.90;;;;;;5036847;28;20034;-69
2023/03/04 03:08:07;;;;;;;71.75;42.47;;;0.20;99.90;;;;;;5036778;28;20630;-69
2023/03/04 03:10:32;;;;;;;68.35;41.67;;;0.10;99.90;;;;;;5036799;28;20125;-69
2023/03/04 03:12:58;;;;;;;65.75;40.42;;;0.10;99.90;;;;;;5036792;28;20018;-69
2023/03/04 03:15:24;;;;;;;65.82;39.60;;;0.10;99.90;;;;;;5018683;28;20032;-69
2023/03/04 03:17:49;;;;;;;63.75;38.20;;;0.00;99.90;;;;;;5036648;28;20100;-69
2023/03/04 03:20:16;;;;;;;71.97;44.17;;;0.00;99.90;;;;;;5036543;28;20026;-69
2023/03/04 03:22:42;;;;;;;79.88;44.47;;;0.00;99.90;;;;;;5018890;28;20374;-69
2023/03/04 03:25:09;;;;;;;73.65;46.95;;;-0.10;99.90;;;;;;5036830;28;20036;-69
2023/03/04 03:27:35;;;;;;;91.40;49.03;;;-0.10;99.90;;;;;;5018759;28;20021;-69
2023/03/04 03:30:01;;;;;;;77.22;46.13;;;-0.20;99.90;;;;;;5036490;28;20405;-69
2023/03/04 03:32:27;;;;;;;75.63;45.97;;;-0.20;99.90;;;;;;5018775;28;20021;-69
2023/03/04 03:34:53;;;;;;;78.63;48.45;;;-0.10;99.90;;;;;;5036377;28;20030;-69
2023/03/04 03:37:18;;;;;;;72.03;43.97;;;0.00;99.90;;;;;;5036394;28;20040;-69
2023/03/04 03:39:44;;;;;;;75.80;45.35;;;0.10;99.90;;;;;;5036451;28;20410;-69
2023/03/04 03:42:10;;;;;;;83.80;48.63;;;0.00;99.90;;;;;;5018631;28;20020;-69
2023/03/04 03:44:35;;;;;;;77.93;47.55;;;-0.10;99.90;;;;;;5018585;28;20021;-69
2023/03/04 03:47:01;;;;;;;78.60;47.35;;;-0.10;99.90;;;;;;5018537;28;20021;-69
2023/03/04 03:49:27;;;;;;;69.60;40.38;;;-0.20;99.90;;;;;;5038406;28;20033;-69
2023/03/04 03:51:53;;;;;;;67.35;42.53;;;-0.30;99.90;;;;;;5040238;28;20032;-69
2023/03/04 03:54:18;;;;;;;68.30;42.17;;;-0.20;99.90;;;;;;5022551;28;20033;-69
2023/03/04 03:56:44;;;;;;;71.00;41.28;;;0.00;99.90;;;;;;5022416;28;20022;-69
2023/03/04 03:59:09;;;;;;;71.85;42.38;;;0.00;99.90;;;;;;5022491;28;20033;-69
2023/03/04 04:01:36;;;;;;;67.93;41.80;;;0.00;99.90;;;;;;5022029;28;20057;-69
2023/03/04 04:04:02;;;;;;;71.32;44.35;;;0.00;99.90;;;;;;5039978;28;20030;-69
2023/03/04 04:06:27;;;;;;;61.60;38.65;;;-0.10;99.90;;;;;;5039430;28;20026;-69
2023/03/04 04:08:53;;;;;;;66.45;42.17;;;-0.20;99.90;;;;;;5040058;28;20029;-69
2023/03/04 04:11:18;;;;;;;70.95;41.22;;;-0.10;99.90;;;;;;5039779;28;20020;-69
2023/03/04 04:13:44;;;;;;;65.15;38.97;;;0.10;99.90;;;;;;5039841;28;20029;-69
2023/03/04 04:16:10;;;;;;;65.20;38.67;;;0.40;99.90;;;;;;5039653;28;20056;-69
2023/03/04 04:18:36;;;;;;;66.00;40.42;;;0.50;99.90;;;;;;5039838;28;20393;-69
2023/03/04 04:21:03;;;;;;;62.33;39.00;;;0.60;99.90;;;;;;5039911;28;20473;-69
2023/03/04 04:23:29;;;;;;;64.40;38.78;;;0.70;99.90;;;;;;5039376;28;20060;-70
2023/03/04 04:25:56;;;;;;;63.22;37.72;;;0.80;99.90;;;;;;5039758;28;20029;-69
2023/03/04 04:28:22;;;;;;;64.85;37.25;;;0.90;99.90;;;;;;5039658;28;20076;-69
2023/03/04 04:30:47;;;;;;;60.25;38.47;;;0.90;99.90;;;;;;5039324;28;20030;-69
2023/03/04 04:33:14;;;;;;;66.80;36.67;;;0.90;99.90;;;;;;5039527;28;20105;-70
2023/03/04 04:35:40;;;;;;;62.40;36.88;;;0.90;99.90;;;;;;5021408;28;20528;-69
2023/03/04 04:38:07;;;;;;;65.93;37.72;;;1.00;99.90;;;;;;5039461;28;20049;-70
2023/03/04 04:40:32;;;;;;;60.40;37.20;;;1.20;99.90;;;;;;5039491;28;20029;-69
2023/03/04 04:42:58;;;;;;;70.28;42.92;;;1.10;99.90;;;;;;5039367;28;20133;-69
2023/03/04 04:45:24;;;;;;;72.55;45.85;;;0.90;99.90;;;;;;5039376;28;20021;-69
2023/03/04 04:47:51;;;;;;;73.82;44.95;;;0.60;99.90;;;;;;5039567;28;20120;-69
2023/03/04 04:50:17;;;;;;;73.40;44.92;;;0.30;99.90;;;;;;5039336;28;20029;-69
2023/03/04 04:52:43;;;;;;;72.47;45.67;;;0.20;99.90;;;;;;5039367;28;20055;-69
2023/03/04 04:55:09;;;;;;;79.88;47.03;;;0.00;99.90;;;;;;5021372;28;20082;-69
2023/03/04 04:57:35;;;;;;;67.78;43.17;;;-0.10;99.90;;;;;;5021117;28;20018;-69
2023/03/04 05:00:01;;;;;;;69.53;46.00;;;-0.10;99.90;;;;;;5038700;28;20057;-69
2023/03/04 05:02:27;;;;;;;88.15;55.30;;;-0.20;99.90;;;;;;5039039;28;20029;-69
2023/03/04 05:04:52;;;;;;;79.45;52.58;;;-0.40;99.90;;;;;;5038886;28;20025;-69
2023/03/04 05:07:18;;;;;;;80.05;49.33;;;-0.60;99.90;;;;;;5038836;28;20030;-69
2023/03/04 05:09:44;;;;;;;81.30;50.13;;;-0.60;99.90;;;;;;5038889;28;20057;-69
2023/03/04 05:12:10;;;;;;;78.10;48.97;;;-0.60;99.90;;;;;;5021221;28;20321;-69
2023/03/04 05:14:36;;;;;;;84.10;48.60;;;-0.70;99.90;;;;;;5038614;28;20022;-69
2023/03/04 05:17:02;;;;;;;79.53;48.47;;;-0.80;99.90;;;;;;5038848;28;20050;-68
2023/03/04 05:19:27;;;;;;;79.13;48.33;;;-0.80;99.90;;;;;;5020593;28;20486;-69
2023/03/04 05:21:53;;;;;;;84.53;51.63;;;-0.80;99.90;;;;;;5038809;28;20052;-69
2023/03/04 05:24:19;;;;;;;84.90;50.10;;;-0.80;99.90;;;;;;5038259;28;20037;-69
2023/03/04 05:26:44;;;;;;;85.28;49.38;;;-0.80;99.90;;;;;;5038731;28;20052;-69
2023/03/04 05:29:10;;;;;;;78.88;49.92;;;-0.80;99.90;;;;;;5038463;28;20520;-69
2023/03/04 05:31:36;;;;;;;79.43;47.03;;;-0.90;99.90;;;;;;5038716;28;20382;-69
2023/03/04 05:34:01;;;;;;;78.63;45.65;;;-0.80;99.90;;;;;;5038584;28;20082;-69
2023/03/04 05:36:27;;;;;;;70.00;44.35;;;-0.80;99.90;;;;;;5020927;28;20017;-69
2023/03/04 05:38:53;;;;;;;77.22;47.55;;;-0.70;99.90;;;;;;5038292;28;20017;-69
2023/03/04 05:41:21;;;;;;;78.25;49.53;;;-0.70;99.90;;;;;;5020387;28;20021;-68
2023/03/04 05:43:48;;;;;;;82.35;48.60;;;-0.60;99.90;;;;;;5038234;28;20017;-69
2023/03/04 05:46:16;;;;;;;84.45;49.85;;;-0.50;99.90;;;;;;5020550;28;20060;-69
2023/03/04 05:48:43;;;;;;;70.82;46.30;;;-0.50;99.90;;;;;;5020505;28;20028;-69
2023/03/04 05:51:09;;;;;;;77.28;47.97;;;-0.50;99.90;;;;;;5020509;28;20029;-69
2023/03/04 05:53:35;;;;;;;78.47;47.90;;;-0.50;99.90;;;;;;5038157;28;20022;-69
2023/03/04 05:56:21;;;;;;;72.35;46.80;;;-0.40;99.90;;;;;;5038196;28;20018;-69
2023/03/04 05:58:47;;;;;;;77.15;44.15;;;-0.40;99.90;;;;;;5029465;28;20041;-68
2023/03/04 06:01:13;;;;;;;74.68;46.47;;;-0.40;99.90;;;;;;5037640;28;20017;-68
2023/03/04 06:03:39;;;;;;;74.50;45.20;;;-0.30;99.90;;;;;;5020129;28;20138;-69
2023/03/04 06:06:05;;;;;;;72.43;45.65;;;-0.20;99.90;;;;;;5037838;28;20021;-68
2023/03/04 06:08:31;;;;;;;71.05;45.08;;;-0.20;99.90;;;;;;5038268;28;20022;-69
2023/03/04 06:10:58;;;;;;;68.28;43.67;;;-0.10;99.90;;;;;;5037245;28;20108;-69
2023/03/04 06:13:24;;;;;;;69.22;43.50;;;0.00;99.90;;;;;;5019930;28;20112;-69
2023/03/04 06:15:57;;;;;;;77.15;45.08;;;0.00;99.90;;;;;;5037286;28;20145;-69
2023/03/04 06:18:24;;;;;;;74.20;44.75;;;0.00;99.90;;;;;;5037484;28;20546;-69
2023/03/04 06:20:50;;;;;;;69.35;42.45;;;0.10;99.90;;;;;;5019831;28;20042;-69
2023/03/04 06:23:16;;;;;;;78.43;46.72;;;0.10;99.90;;;;;;5037389;28;20025;-69
2023/03/04 06:25:42;;;;;;;65.47;44.10;;;0.20;99.90;;;;;;5037561;28;20032;-69
2023/03/04 06:28:07;;;;;;;74.75;44.17;;;0.20;99.90;;;;;;5019727;28;20033;-69
2023/03/04 06:30:33;;;;;;;75.38;45.25;;;0.20;99.90;;;;;;5033129;28;20029;-68
2023/03/04 06:32:59;;;;;;;74.18;46.45;;;0.30;99.90;;;;;;5037147;28;20021;-69
2023/03/04 06:35:24;;;;;;;69.50;42.92;;;0.30;99.90;;;;;;5037448;28;20100;-69
2023/03/04 06:37:50;;;;;;;73.47;43.28;;;0.40;99.90;;;;;;5037412;28;20022;-69
2023/03/04 06:40:16;;;;;;;72.53;46.95;;;0.40;99.90;;;;;;5037324;28;20394;-69
2023/03/04 06:42:42;;;;;;;70.13;43.88;;;0.50;99.90;;;;;;5037378;28;20036;-69
2023/03/04 06:45:09;;;;;;;74.78;44.08;;;0.50;99.90;;;;;;5019032;28;20552;-69
2023/03/04 06:47:35;;;;;;;76.55;45.20;;;0.60;99.90;;;;;;5037259;28;20021;-68
2023/03/04 06:50:02;;;;;;;70.63;42.75;;;0.60;99.90;;;;;;5019234;28;21545;-69
2023/03/04 06:52:28;;;;;;;73.38;44.13;;;0.60;99.90;;;;;;5037075;28;20465;-68
2023/03/04 06:54:53;;;;;;;69.72;46.00;;;0.60;99.90;;;;;;5019364;28;20044;-68
2023/03/04 06:57:19;;;;;;;75.47;43.97;;;0.70;99.90;;;;;;5019381;28;20033;-68
2023/03/04 06:59:44;;;;;;;71.90;44.28;;;0.70;99.90;;;;;;5036794;28;20030;-69
2023/03/04 07:02:11;;;;;;;78.57;46.42;;;0.80;99.90;;;;;;5019243;28;20034;-68
2023/03/04 07:04:37;;;;;;;76.32;46.45;;;0.80;99.90;;;;;;5019085;28;20032;-68
2023/03/04 07:07:02;;;;;;;65.55;42.95;;;0.90;99.90;;;;;;5019047;28;20481;-68
2023/03/04 07:09:28;;;;;;;67.97;43.67;;;1.00;99.90;;;;;;5036626;28;20532;-68
2023/03/04 07:11:54;;;;;;;78.05;45.08;;;1.00;99.90;;;;;;5019125;28;20087;-68
2023/03/04 07:14:19;;;;;;;72.75;42.95;;;1.10;99.90;;;;;;5036783;28;20013;-67
2023/03/04 07:16:45;;;;;;;74.80;47.35;;;1.20;99.90;;;;;;5018764;28;20083;-67
2023/03/04 07:19:11;;;;;;;68.32;43.80;;;1.20;99.90;;;;;;5036510;28;20465;-68
2023/03/04 07:21:37;;;;;;;71.38;43.90;;;1.30;99.90;;;;;;5019164;28;20029;-67
2023/03/04 07:24:03;;;;;;;94.88;52.45;;;1.40;99.90;;;;;;5016750;28;20515;-68
2023/03/04 07:26:29;;;;;;;126.93;71.25;;;1.50;99.90;;;;;;5036298;28;20417;-67
2023/03/04 07:28:57;;;;;;;287.58;134.40;;;1.60;99.90;;;;;;5018705;28;20022;-68
2023/03/04 07:31:31;;;;;;;690.33;291.08;;;1.70;99.90;;;;;;5036122;28;20021;-67
2023/03/04 07:33:59;;;;;;;188.55;83.60;;;1.80;99.90;;;;;;5018751;28;20117;-68
2023/03/04 07:36:25;;;;;;;180.93;83.50;;;1.80;99.90;;;;;;5036321;28;20021;-67
2023/03/04 07:38:53;;;;;;;851.17;411.42;;;2.10;99.90;;;;;;5018653;28;20397;-68
2023/03/04 07:41:20;;;;;;;336.80;142.32;;;2.20;99.90;;;;;;5018378;28;20032;-68
2023/03/04 07:43:46;;;;;;;331.80;178.55;;;2.30;99.90;;;;;;5018936;28;20045;-68
2023/03/04 07:46:12;;;;;;;77.97;47.50;;;2.30;99.90;;;;;;5018550;28;20025;-68
2023/03/04 07:48:38;;;;;;;74.15;44.53;;;2.40;99.90;;;;;;5018584;28;20036;-68
2023/03/04 07:51:12;;;;;;;69.15;43.65;;;2.40;99.90;;;;;;5036136;28;20032;-68
2023/03/04 07:53:39;;;;;;;74.57;45.50;;;2.50;99.90;;;;;;5036703;28;20022;-68
2023/03/04 07:56:06;;;;;;;84.85;48.85;;;2.40;99.90;;;;;;5018382;28;20022;-68
2023/03/04 07:58:32;;;;;;;74.75;43.05;;;2.50;99.90;;;;;;5018649;28;20493;-69
2023/03/04 08:00:58;;;;;;;79.05;44.97;;;2.60;99.90;;;;;;5018323;28;20021;-69
2023/03/04 08:03:24;;;;;;;69.65;42.28;;;2.70;99.90;;;;;;5018039;28;20445;-68
2023/03/04 08:05:50;;;;;;;67.35;43.58;;;2.70;99.90;;;;;;5036331;28;20030;-68
2023/03/04 08:08:16;;;;;;;66.47;41.75;;;2.80;99.90;;;;;;5018515;28;20025;-69
2023/03/04 08:10:43;;;;;;;68.47;44.80;;;3.00;99.90;;;;;;5035999;28;20021;-68
2023/03/04 08:13:09;;;;;;;63.55;39.75;;;3.10;99.90;;;;;;5036202;28;20014;-68
2023/03/04 08:15:39;;;;;;;66.97;41.78;;;3.10;99.90;;;;;;5018584;28;20036;-68
2023/03/04 08:18:05;;;;;;;63.85;39.38;;;3.30;99.90;;;;;;5035054;28;20041;-68
2023/03/04 08:20:30;;;;;;;64.00;41.10;;;3.40;99.90;;;;;;5018219;28;20394;-68
2023/03/04 08:22:56;;;;;;;62.33;40.55;;;3.60;99.90;;;;;;5035670;28;20032;-68
2023/03/04 08:25:21;;;;;;;64.50;40.65;;;3.70;99.90;;;;;;5035901;28;20033;-67
2023/03/04 08:27:47;;;;;;;62.83;40.33;;;3.90;99.90;;;;;;5036135;28;20036;-68
2023/03/04 08:30:13;;;;;;;65.28;40.75;;;3.90;99.90;;;;;;5018041;28;20045;-69
2023/03/04 08:32:39;;;;;;;69.90;40.05;;;3.90;99.90;;;;;;5036037;28;20436;-69
2023/03/04 08:35:04;;;;;;;68.47;41.83;;;4.10;99.90;;;;;;5036724;28;20079;-68
2023/03/04 08:37:30;;;;;;;65.40;42.15;;;4.30;99.90;;;;;;5039824;28;20076;-68
2023/03/04 08:39:56;;;;;;;63.80;40.65;;;4.30;99.90;;;;;;5020939;28;20108;-69
2023/03/04 08:42:23;;;;;;;63.60;41.42;;;4.30;99.90;;;;;;5038375;28;20025;-68
2023/03/04 08:44:48;;;;;;;69.30;41.92;;;4.40;99.90;;;;;;5021702;28;20022;-68
2023/03/04 08:47:14;;;;;;;66.30;42.10;;;4.60;99.90;;;;;;5039687;28;20105;-68
2023/03/04 08:49:40;;;;;;;61.28;39.67;;;4.70;99.90;;;;;;5021233;28;20052;-68
2023/03/04 08:52:06;;;;;;;112.00;72.70;;;4.90;99.90;;;;;;5020856;28;20025;-69
2023/03/04 08:54:32;;;;;;;238.38;146.70;;;4.80;99.90;;;;;;5037651;28;20029;-69
2023/03/04 08:56:57;;;;;;;81.20;52.45;;;5.00;99.90;;;;;;5037398;28;20507;-69
2023/03/04 08:59:23;;;;;;;66.38;44.63;;;5.30;99.90;;;;;;5037836;28;20025;-69
2023/03/04 09:01:49;;;;;;;67.68;42.35;;;5.50;99.90;;;;;;5021288;28;20477;-69
2023/03/04 09:04:14;;;;;;;69.45;41.70;;;5.70;99.90;;;;;;5020716;28;20026;-69
2023/03/04 09:06:40;;;;;;;67.68;42.15;;;5.90;99.90;;;;;;5021313;28;20102;-69
2023/03/04 09:09:06;;;;;;;110.13;59.03;;;5.90;99.90;;;;;;5038710;28;20020;-69
2023/03/04 09:11:31;;;;;;;69.78;41.35;;;6.00;99.90;;;;;;5039235;28;20470;-69
2023/03/04 09:13:57;;;;;;;59.42;40.25;;;6.10;99.90;;;;;;5038779;28;20022;-69
2023/03/04 09:16:23;;;;;;;63.85;44.80;;;6.30;99.90;;;;;;5039023;28;20501;-69
2023/03/04 09:18:48;;;;;;;85.15;65.22;;;6.40;99.90;;;;;;5038759;28;20077;-69
2023/03/04 09:21:14;;;;;;;58.85;39.17;;;6.60;99.90;;;;;;5038747;28;20366;-69
2023/03/04 09:23:40;;;;;;;51.60;36.03;;;6.80;99.90;;;;;;5038687;28;20429;-69
2023/03/04 09:26:23;;;;;;;60.15;37.55;;;7.00;99.90;;;;;;5038702;28;20021;-69
2023/03/04 09:28:53;;;;;;;49.85;32.38;;;7.10;99.90;;;;;;5020724;28;20026;-69
2023/03/04 09:31:20;;;;;;;52.05;32.15;;;7.30;99.90;;;;;;5038534;28;20027;-69
2023/03/04 09:33:46;;;;;;;45.08;29.83;;;7.60;99.90;;;;;;5038520;28;20540;-69
2023/03/04 09:36:13;;;;;;;43.58;28.20;;;7.60;99.90;;;;;;5038618;28;20440;-69
2023/03/04 09:38:39;;;;;;;47.03;29.50;;;7.50;99.90;;;;;;5031831;28;20029;-70
2023/03/04 09:41:08;;;;;;;48.28;30.70;;;7.50;99.90;;;;;;5020451;28;20033;-69
2023/03/04 09:43:36;;;;;;;51.08;30.73;;;7.60;99.90;;;;;;5038705;28;20036;-69
2023/03/04 09:46:10;;;;;;;47.53;30.17;;;7.70;99.90;;;;;;5037424;28;20095;-69
2023/03/04 09:48:47;;;;;;;53.33;31.15;;;7.80;99.90;;;;;;5020519;28;20025;-69
2023/03/04 09:51:22;;;;;;;48.08;29.92;;;7.90;99.90;;;;;;5038100;28;20017;-69
2023/03/04 09:54:12;;;;;;;44.50;30.13;;;7.90;99.90;;;;;;5038307;28;20025;-69
2023/03/04 09:56:40;;;;;;;47.40;29.88;;;7.70;99.90;;;;;;5038504;28;20133;-69
2023/03/04 09:59:28;;;;;;;47.53;30.10;;;7.70;99.90;;;;;;5038217;28;20026;-69
2023/03/04 10:01:55;;;;;;;46.03;29.77;;;7.70;99.90;;;;;;5038023;28;20048;-69
2023/03/04 10:04:41;;;;;;;49.33;29.08;;;7.70;99.90;;;;;;5037802;28;20533;-71
2023/03/04 10:07:16;;;;;;;45.15;29.48;;;7.70;99.90;;;;;;5037698;28;20489;-71
2023/03/04 10:09:55;;;;;;;47.17;30.52;;;7.70;99.90;;;;;;5038217;28;20093;-68
2023/03/04 10:12:24;;;;;;;45.10;27.85;;;7.70;99.90;;;;;;5037597;28;20489;-69
2023/03/04 10:15:27;;;;;;;50.42;31.25;;;7.70;99.90;;;;;;5037754;28;20021;-69
2023/03/04 10:18:09;;;;;;;41.72;27.65;;;7.80;99.90;;;;;;5037860;28;20041;-71
2023/03/04 10:21:06;;;;;;;52.42;30.77;;;7.90;99.90;;;;;;5052861;28;20049;-72
2023/03/04 10:23:33;;;;;;;49.90;30.75;;;8.20;99.90;;;;;;5036431;28;20048;-71
2023/03/04 10:26:09;;;;;;;47.97;30.55;;;8.30;99.90;;;;;;5037793;28;20473;-69
2023/03/04 10:28:35;;;;;;;49.00;30.02;;;8.40;99.90;;;;;;5019634;28;20036;-69
2023/03/04 10:31:07;;;;;;;52.22;30.50;;;8.50;99.90;;;;;;5037590;28;20030;-69
2023/03/04 10:33:38;;;;;;;48.58;31.95;;;8.50;99.90;;;;;;5031561;28;20028;-69
2023/03/04 10:36:05;;;;;;;46.25;27.77;;;8.60;99.90;;;;;;5037438;28;20060;-69
2023/03/04 10:38:36;;;;;;;53.05;33.58;;;8.60;99.90;;;;;;5037239;28;20037;-71
2023/03/04 10:41:15;;;;;;;45.85;30.90;;;8.60;99.90;;;;;;5037207;28;20025;-72
2023/03/04 10:43:44;;;;;;;54.25;34.20;;;8.60;99.90;;;;;;5037475;28;20116;-72
2023/03/04 10:46:11;;;;;;;49.28;31.05;;;8.60;99.90;;;;;;5037109;28;20037;-69
2023/03/04 10:48:40;;;;;;;47.15;30.50;;;8.70;99.90;;;;;;5037269;28;20052;-69
2023/03/04 10:51:30;;;;;;;43.60;26.48;;;8.70;99.90;;;;;;5019294;28;20021;-69
2023/03/04 10:54:17;;;;;;;45.72;31.00;;;8.90;99.90;;;;;;5027773;28;20033;-69
2023/03/04 10:57:03;;;;;;;48.08;29.67;;;9.20;99.90;;;;;;5027503;28;20032;-69
2023/03/04 10:59:39;;;;;;;43.50;28.23;;;9.30;99.90;;;;;;5036858;28;20032;-69
2023/03/04 11:02:16;;;;;;;44.28;28.27;;;9.40;99.90;;;;;;5037081;28;20022;-70
2023/03/04 11:04:41;;;;;;;46.58;28.23;;;9.50;99.90;;;;;;5019238;28;20037;-69
2023/03/04 11:07:09;;;;;;;48.83;30.33;;;9.40;99.90;;;;;;5037076;28;20281;-69
2023/03/04 11:09:35;;;;;;;49.70;31.48;;;9.20;99.90;;;;;;5036979;28;20075;-69
2023/03/04 11:12:08;;;;;;;49.85;28.05;;;9.00;99.90;;;;;;5036776;28;20075;-69
2023/03/04 11:14:37;;;;;;;41.88;26.27;;;9.00;99.90;;;;;;5037202;28;20031;-69
2023/03/04 11:17:19;;;;;;;44.97;27.67;;;8.90;99.90;;;;;;5036355;28;20038;-69
2023/03/04 11:20:01;;;;;;;52.10;30.67;;;9.00;99.90;;;;;;5018770;28;20029;-69
2023/03/04 11:22:29;;;;;;;45.10;28.17;;;9.00;99.90;;;;;;5036886;28;20390;-69
2023/03/04 11:25:04;;;;;;;44.83;26.38;;;8.90;99.90;;;;;;5032150;28;20030;-70
2023/03/04 11:27:50;;;;;;;49.13;30.50;;;8.80;99.90;;;;;;5036976;28;20087;-70
2023/03/04 11:30:40;;;;;;;50.42;30.55;;;8.70;99.90;;;;;;5036279;28;20025;-70
2023/03/04 11:33:25;;;;;;;49.53;30.95;;;8.80;99.90;;;;;;5018418;28;20045;-69
2023/03/04 11:36:12;;;;;;;46.85;28.92;;;8.80;99.90;;;;;;5036811;28;20036;-70
2023/03/04 11:38:46;;;;;;;43.75;28.48;;;8.90;99.90;;;;;;5044342;28;20022;-70
2023/03/04 11:41:31;;;;;;;46.67;30.08;;;9.10;99.90;;;;;;5018691;28;20096;-70
2023/03/04 11:43:58;;;;;;;44.50;26.80;;;9.20;99.90;;;;;;5036817;28;20025;-70
2023/03/04 11:46:55;;;;;;;48.53;31.20;;;9.40;99.90;;;;;;5035964;28;20469;-70
2023/03/04 11:50:02;;;;;;;44.40;29.50;;;9.40;99.90;;;;;;5018128;28;20044;-70
2023/03/04 11:52:46;;;;;;;47.55;30.70;;;9.40;99.90;;;;;;5006606;28;20041;-70
2023/03/04 11:55:18;;;;;;;46.95;27.80;;;9.50;99.90;;;;;;5036597;28;20073;-71
2023/03/04 11:58:21;;;;;;;49.80;31.05;;;9.60;99.90;;;;;;5018522;28;20036;-70
2023/03/04 12:01:09;;;;;;;47.05;30.95;;;9.70;99.90;;;;;;5036106;28;20022;-70
2023/03/04 12:03:59;;;;;;;48.70;30.23;;;9.70;99.90;;;;;;5036479;28;20093;-70
2023/03/04 12:06:51;;;;;;;47.67;30.35;;;9.60;99.90;;;;;;5036681;28;20057;-71
2023/03/04 12:09:19;;;;;;;38.45;22.98;;;9.80;99.90;;;;;;5049468;28;20481;-70
2023/03/04 12:11:54;;;;;;;44.55;29.60;;;9.90;99.90;;;;;;5032722;28;20508;-70
2023/03/04 12:14:24;;;;;;;44.47;31.50;;;9.90;99.90;;;;;;5038661;28;20022;-70
2023/03/04 12:17:25;;;;;;;49.27;30.17;;;10.10;99.90;;;;;;5038449;28;20445;-70
2023/03/04 12:20:15;;;;;;;42.70;26.98;;;10.30;99.90;;;;;;5023849;28;20280;-70
2023/03/04 12:22:52;;;;;;;46.13;29.23;;;10.20;99.90;;;;;;5039796;28;20017;-70
2023/03/04 12:25:48;;;;;;;46.35;31.25;;;10.00;99.90;;;;;;5021939;28;20031;-70
2023/03/04 12:28:35;;;;;;;45.10;29.02;;;9.80;99.90;;;;;;5021474;28;20040;-70
2023/03/04 12:31:16;;;;;;;46.28;29.65;;;9.70;99.90;;;;;;5039717;28;20056;-70
2023/03/04 12:34:08;;;;;;;;;;;9.60;99.90;;;;;;5055133;28;20021;-71
2023/03/04 12:36:39;;;;;;;52.97;33.03;;;9.60;99.90;;;;;;5022008;28;19909;-70
2023/03/04 12:39:26;;;;;;;48.53;31.45;;;9.80;99.90;;;;;;5021908;28;20097;-70
2023/03/04 12:42:00;;;;;;;46.17;32.03;;;10.00;99.90;;;;;;5039894;28;20018;-71
2023/03/04 12:44:32;;;;;;;45.50;31.25;;;10.20;99.90;;;;;;5039267;28;20022;-70
2023/03/04 12:47:22;;;;;;;78.35;44.03;;;10.30;99.90;;;;;;5039740;28;20025;-70